Time;durP1;ratioP1;P1;durP2;ratioP2;P2;SDS_P1;SDS_P2;PMS_P1;PMS_P2;Temp;Humidity;BMP_temperature;BMP_pressure;BME280_temperature;BME280_humidity;BME280_pressure;Samples;Min_cycle;Max_cycle;Signal;HPM_P1;HPM_P2
2023/12/04 00:01:09;;;;;;;35.90;15.93;;;;;;;;;;5020419;28;20210;-75
2023/12/04 00:03:34;;;;;;;31.53;15.07;;;;;;;;;;5037191;28;20292;-75
2023/12/04 00:06:00;;;;;;;35.87;15.17;;;;;;;;;;5030112;28;20197;-75
2023/12/04 00:08:25;;;;;;;33.70;15.53;;;;;;;;;;5033757;28;20568;-76
2023/12/04 00:10:51;;;;;;;32.67;15.57;;;;;;;;;;5033708;28;20198;-75
2023/12/04 00:13:17;;;;;;;33.87;16.17;;;;;;;;;;5030997;28;20190;-75
2023/12/04 00:15:44;;;;;;;29.53;14.60;;;;;;;;;;5015619;28;20610;-76
2023/12/04 00:18:09;;;;;;;33.70;15.77;;;;;;;;;;5032202;28;20213;-76
2023/12/04 00:20:35;;;;;;;35.33;16.60;;;;;;;;;;5031582;28;20191;-76
2023/12/04 00:23:00;;;;;;;35.33;17.20;;;;;;;;;;5028582;28;20189;-76
2023/12/04 00:25:26;;;;;;;34.00;15.03;;;;;;;;;;5027675;28;20307;-76
2023/12/04 00:27:51;;;;;;;35.47;15.43;;;;;;;;;;5031625;28;20228;-77
2023/12/04 00:30:17;;;;;;;37.50;16.83;;;;;;;;;;5028997;28;20194;-76
2023/12/04 00:32:42;;;;;;;32.63;16.03;;;;;;;;;;5034724;28;20269;-76
2023/12/04 00:35:08;;;;;;;32.43;15.73;;;;;;;;;;5026566;28;20186;-76
2023/12/04 00:37:37;;;;;;;33.40;16.17;;;;;;;;;;5030218;28;20186;-75
2023/12/04 00:40:04;;;;;;;35.70;16.83;;;;;;;;;;5036185;28;20190;-75
2023/12/04 00:42:29;;;;;;;34.23;15.67;;;;;;;;;;5034407;28;20480;-75
2023/12/04 00:44:54;;;;;;;33.87;16.53;;;;;;;;;;5034028;28;20193;-75
2023/12/04 00:47:20;;;;;;;35.63;16.73;;;;;;;;;;5031333;28;20267;-76
2023/12/04 00:49:45;;;;;;;34.50;16.87;;;;;;;;;;5034682;28;20198;-75
2023/12/04 00:52:11;;;;;;;32.57;15.17;;;;;;;;;;5040455;28;20211;-75
2023/12/04 00:54:39;;;;;;;34.20;15.80;;;;;;;;;;5033806;28;20198;-75
2023/12/04 00:57:05;;;;;;;33.90;15.77;;;;;;;;;;5037891;28;20202;-75
2023/12/04 00:59:30;;;;;;;30.60;16.00;;;;;;;;;;5036932;28;20374;-75
2023/12/04 01:01:56;;;;;;;33.10;16.10;;;;;;;;;;5011174;28;20303;-76
2023/12/04 01:04:21;;;;;;;34.47;16.30;;;;;;;;;;5017019;28;20280;-75
2023/12/04 01:06:46;;;;;;;34.23;15.90;;;;;;;;;;5040558;28;20268;-75
2023/12/04 01:09:12;;;;;;;35.13;16.63;;;;;;;;;;5032025;28;20217;-76
2023/12/04 01:11:37;;;;;;;34.10;16.20;;;;;;;;;;5023382;28;20204;-75
2023/12/04 01:14:03;;;;;;;30.90;15.33;;;;;;;;;;5025779;28;20706;-76
2023/12/04 01:16:28;;;;;;;31.67;15.87;;;;;;;;;;5025738;28;20741;-75
2023/12/04 01:18:54;;;;;;;34.03;15.83;;;;;;;;;;5027641;28;20559;-75
2023/12/04 01:21:19;;;;;;;30.50;15.33;;;;;;;;;;5029649;28;20645;-75
2023/12/04 01:23:45;;;;;;;29.70;14.83;;;;;;;;;;5032599;28;20277;-75
2023/12/04 01:26:11;;;;;;;32.97;15.87;;;;;;;;;;5034109;28;20189;-75
2023/12/04 01:28:37;;;;;;;31.83;15.20;;;;;;;;;;5041995;28;20299;-75
2023/12/04 01:31:02;;;;;;;30.17;15.27;;;;;;;;;;5036264;28;20316;-75
2023/12/04 01:33:29;;;;;;;31.47;14.90;;;;;;;;;;5032294;28;20657;-75
2023/12/04 01:35:55;;;;;;;33.00;15.63;;;;;;;;;;5036140;28;20197;-75
2023/12/04 01:38:20;;;;;;;29.47;14.20;;;;;;;;;;5013255;28;20527;-75
2023/12/04 01:40:46;;;;;;;31.03;15.00;;;;;;;;;;5034151;28;20197;-75
2023/12/04 01:43:11;;;;;;;30.30;15.40;;;;;;;;;;5024973;28;20194;-75
2023/12/04 01:45:36;;;;;;;31.13;15.27;;;;;;;;;;5020235;28;20200;-76
2023/12/04 01:48:03;;;;;;;33.77;15.70;;;;;;;;;;5027917;28;20252;-76
2023/12/04 01:50:28;;;;;;;27.47;14.30;;;;;;;;;;5009118;28;20182;-76
2023/12/04 01:52:54;;;;;;;35.10;15.40;;;;;;;;;;5019048;28;20281;-76
2023/12/04 01:55:21;;;;;;;28.57;13.30;;;;;;;;;;5029557;28;20197;-76
2023/12/04 01:57:47;;;;;;;30.97;15.23;;;;;;;;;;5035894;28;20234;-76
2023/12/04 02:00:14;;;;;;;30.53;14.63;;;;;;;;;;5029520;28;20190;-76
2023/12/04 02:02:41;;;;;;;33.60;14.97;;;;;;;;;;5038201;28;20544;-75
2023/12/04 02:05:08;;;;;;;30.13;14.70;;;;;;;;;;5040015;28;20204;-75
2023/12/04 02:07:35;;;;;;;30.60;14.67;;;;;;;;;;5041399;28;20217;-76
2023/12/04 02:10:01;;;;;;;30.87;14.23;;;;;;;;;;5032886;28;20235;-76
2023/12/04 02:12:26;;;;;;;30.77;13.43;;;;;;;;;;5014118;28;20186;-75
2023/12/04 02:14:52;;;;;;;30.10;15.03;;;;;;;;;;5027528;28;20218;-75
2023/12/04 02:17:19;;;;;;;28.17;13.87;;;;;;;;;;5028428;28;20193;-76
2023/12/04 02:19:44;;;;;;;25.47;13.90;;;;;;;;;;5037589;28;20197;-75
2023/12/04 02:22:10;;;;;;;25.57;13.50;;;;;;;;;;5036695;28;20637;-76
2023/12/04 02:24:36;;;;;;;28.27;13.53;;;;;;;;;;5025928;28;20201;-76
2023/12/04 02:27:17;;;;;;;32.73;15.23;;;;;;;;;;5030946;28;20197;-75
2023/12/04 02:29:49;;;;;;;26.67;12.77;;;;;;;;;;5029663;28;20236;-76
2023/12/04 02:32:19;;;;;;;27.97;14.50;;;;;;;;;;5023794;28;20177;-76
2023/12/04 02:34:46;;;;;;;31.87;14.03;;;;;;;;;;5031876;28;20242;-75
2023/12/04 02:37:13;;;;;;;31.93;14.80;;;;;;;;;;5030527;28;20192;-75
2023/12/04 02:39:39;;;;;;;27.37;14.30;;;;;;;;;;5031438;28;20264;-75
2023/12/04 02:42:05;;;;;;;30.00;14.70;;;;;;;;;;5039735;28;20327;-75
2023/12/04 02:44:31;;;;;;;34.27;15.17;;;;;;;;;;5039253;28;20240;-75
2023/12/04 02:46:56;;;;;;;26.53;13.27;;;;;;;;;;5037204;28;20232;-75
2023/12/04 02:49:22;;;;;;;27.10;13.50;;;;;;;;;;5033631;28;20206;-75
2023/12/04 02:51:47;;;;;;;29.10;13.70;;;;;;;;;;5043071;28;20558;-75
2023/12/04 02:54:13;;;;;;;31.90;14.53;;;;;;;;;;5035732;28;20198;-75
2023/12/04 02:56:38;;;;;;;29.17;14.03;;;;;;;;;;5036512;28;20267;-75
2023/12/04 02:59:04;;;;;;;26.30;12.27;;;;;;;;;;5035450;28;20539;-75
2023/12/04 03:01:29;;;;;;;27.73;13.47;;;;;;;;;;5029325;28;20194;-75
2023/12/04 03:03:54;;;;;;;26.73;13.90;;;;;;;;;;5032212;28;20643;-75
2023/12/04 03:06:20;;;;;;;27.60;13.27;;;;;;;;;;5040914;28;20230;-75
2023/12/04 03:08:45;;;;;;;29.93;14.93;;;;;;;;;;5032558;28;20206;-75
2023/12/04 03:11:11;;;;;;;25.37;12.80;;;;;;;;;;5038610;28;20683;-75
2023/12/04 03:13:36;;;;;;;29.00;13.47;;;;;;;;;;5035219;28;20190;-75
2023/12/04 03:16:02;;;;;;;30.63;14.13;;;;;;;;;;5033632;28;20236;-75
2023/12/04 03:18:28;;;;;;;30.30;14.40;;;;;;;;;;5031696;28;20205;-75
2023/12/04 03:20:55;;;;;;;27.90;13.33;;;;;;;;;;5036194;28;20230;-76
2023/12/04 03:23:20;;;;;;;29.90;14.47;;;;;;;;;;5039669;28;20700;-75
2023/12/04 03:25:46;;;;;;;25.37;13.23;;;;;;;;;;5039331;28;20205;-75
2023/12/04 03:28:13;;;;;;;27.17;13.33;;;;;;;;;;5032051;28;20402;-75
2023/12/04 03:30:38;;;;;;;24.67;12.90;;;;;;;;;;5039366;28;20292;-75
2023/12/04 03:33:04;;;;;;;27.40;13.67;;;;;;;;;;5034041;28;20776;-75
2023/12/04 03:35:29;;;;;;;26.70;14.00;;;;;;;;;;5042268;28;20205;-75
2023/12/04 03:37:54;;;;;;;30.30;13.37;;;;;;;;;;5031485;28;20518;-75
2023/12/04 03:40:20;;;;;;;25.80;13.63;;;;;;;;;;5032081;28;20279;-75
2023/12/04 03:42:45;;;;;;;25.93;13.07;;;;;;;;;;5033095;28;20186;-75
2023/12/04 03:45:11;;;;;;;24.97;13.10;;;;;;;;;;5032008;28;20186;-75
2023/12/04 03:47:36;;;;;;;25.80;12.97;;;;;;;;;;5029154;28;20221;-74
2023/12/04 03:50:02;;;;;;;24.03;12.40;;;;;;;;;;5049211;28;20183;-75
2023/12/04 03:52:27;;;;;;;26.13;13.23;;;;;;;;;;5029138;28;20460;-75
2023/12/04 03:54:52;;;;;;;26.67;12.90;;;;;;;;;;5035802;28;20200;-75
2023/12/04 03:57:18;;;;;;;23.73;11.97;;;;;;;;;;5039936;28;20224;-75
2023/12/04 03:59:44;;;;;;;23.03;11.43;;;;;;;;;;5033769;28;20190;-75
2023/12/04 04:02:10;;;;;;;24.80;11.97;;;;;;;;;;5035197;28;20601;-75
2023/12/04 04:04:35;;;;;;;25.73;13.20;;;;;;;;;;5035097;28;20186;-75
2023/12/04 04:07:00;;;;;;;24.47;12.13;;;;;;;;;;5009835;28;20556;-75
2023/12/04 04:09:26;;;;;;;23.90;12.33;;;;;;;;;;5028773;28;20220;-76
2023/12/04 04:11:51;;;;;;;25.37;12.00;;;;;;;;;;5029914;28;20182;-75
2023/12/04 04:14:17;;;;;;;24.53;12.80;;;;;;;;;;5038086;28;20186;-76
2023/12/04 04:16:42;;;;;;;25.23;12.47;;;;;;;;;;5025387;28;20191;-76
2023/12/04 04:19:08;;;;;;;25.47;12.40;;;;;;;;;;5014973;28;20198;-76
2023/12/04 04:21:34;;;;;;;22.43;11.03;;;;;;;;;;5028435;28;20202;-76
2023/12/04 04:23:59;;;;;;;24.57;11.60;;;;;;;;;;5032310;28;20190;-76
2023/12/04 04:26:25;;;;;;;23.00;11.87;;;;;;;;;;5033832;28;20643;-75
2023/12/04 04:28:50;;;;;;;23.43;12.00;;;;;;;;;;5017796;28;20225;-76
2023/12/04 04:31:15;;;;;;;22.83;11.77;;;;;;;;;;5028332;28;20186;-76
2023/12/04 04:33:42;;;;;;;25.30;12.57;;;;;;;;;;5029291;28;20286;-76
2023/12/04 04:36:09;;;;;;;23.60;12.20;;;;;;;;;;5052559;28;20263;-75
2023/12/04 04:38:35;;;;;;;21.63;11.77;;;;;;;;;;5017113;28;20211;-76
2023/12/04 04:41:00;;;;;;;21.37;11.20;;;;;;;;;;5034808;28;20653;-75
2023/12/04 04:43:25;;;;;;;24.03;11.47;;;;;;;;;;5026846;28;20192;-75
2023/12/04 04:45:51;;;;;;;22.87;12.20;;;;;;;;;;5040947;28;20228;-75
2023/12/04 04:48:16;;;;;;;21.73;11.60;;;;;;;;;;5046101;28;20209;-75
2023/12/04 04:50:42;;;;;;;23.73;12.93;;;;;;;;;;5028985;28;20183;-75
2023/12/04 04:53:07;;;;;;;22.73;11.77;;;;;;;;;;5027753;28;20186;-75
2023/12/04 04:55:33;;;;;;;20.87;11.17;;;;;;;;;;5030984;28;20595;-75
2023/12/04 04:57:58;;;;;;;22.17;10.93;;;;;;;;;;5035995;28;20205;-75
2023/12/04 05:00:23;;;;;;;21.13;11.07;;;;;;;;;;5036434;28;20197;-75
2023/12/04 05:02:49;;;;;;;21.03;11.50;;;;;;;;;;5036711;28;20198;-75
2023/12/04 05:05:14;;;;;;;21.73;11.77;;;;;;;;;;5032634;28;20656;-75
2023/12/04 05:07:40;;;;;;;21.93;11.90;;;;;;;;;;5033443;28;20209;-75
2023/12/04 05:10:05;;;;;;;23.43;11.60;;;;;;;;;;5035283;28;20178;-75
2023/12/04 05:12:31;;;;;;;27.20;11.00;;;;;;;;;;5034311;28;20192;-75
2023/12/04 05:14:56;;;;;;;22.53;11.40;;;;;;;;;;5032146;28;20530;-75
2023/12/04 05:17:21;;;;;;;23.37;10.83;;;;;;;;;;5036396;28;20256;-75
2023/12/04 05:19:47;;;;;;;21.00;10.87;;;;;;;;;;5017221;28;20212;-75
2023/12/04 05:22:12;;;;;;;19.20;11.13;;;;;;;;;;5033482;28;20739;-75
2023/12/04 05:24:38;;;;;;;23.67;11.97;;;;;;;;;;5026812;28;20217;-75
2023/12/04 05:27:04;;;;;;;20.40;10.67;;;;;;;;;;5021462;28;20232;-75
2023/12/04 05:29:29;;;;;;;22.33;11.57;;;;;;;;;;5031311;28;20221;-75
2023/12/04 05:31:54;;;;;;;20.23;10.77;;;;;;;;;;5024416;28;20200;-76
2023/12/04 05:34:20;;;;;;;20.43;10.30;;;;;;;;;;5030274;28;20191;-75
2023/12/04 05:36:45;;;;;;;19.67;11.27;;;;;;;;;;5026268;28;20189;-75
2023/12/04 05:39:11;;;;;;;22.57;11.03;;;;;;;;;;5024342;28;20216;-76
2023/12/04 05:41:36;;;;;;;19.50;10.20;;;;;;;;;;5028946;28;20568;-76
2023/12/04 05:44:02;;;;;;;20.40;10.67;;;;;;;;;;5043332;28;20188;-75
2023/12/04 05:46:27;;;;;;;18.57;9.40;;;;;;;;;;5035838;28;21872;-75
2023/12/04 05:48:53;;;;;;;21.73;10.77;;;;;;;;;;5012519;28;20223;-75
2023/12/04 05:51:18;;;;;;;21.00;10.73;;;;;;;;;;5041839;28;20224;-75
2023/12/04 05:53:44;;;;;;;21.03;10.93;;;;;;;;;;5025674;28;20193;-75
2023/12/04 05:56:10;;;;;;;20.23;10.77;;;;;;;;;;5026875;28;20260;-75
2023/12/04 05:58:35;;;;;;;19.63;10.10;;;;;;;;;;5026167;28;20241;-75
2023/12/04 06:01:01;;;;;;;20.27;10.00;;;;;;;;;;5026094;28;20201;-75
2023/12/04 06:03:26;;;;;;;18.47;10.30;;;;;;;;;;5036880;28;20429;-75
2023/12/04 06:05:52;;;;;;;20.90;10.67;;;;;;;;;;5034351;28;20182;-75
2023/12/04 06:08:17;;;;;;;20.03;10.37;;;;;;;;;;5031991;28;20206;-75
2023/12/04 06:10:43;;;;;;;20.83;9.87;;;;;;;;;;5020504;28;20205;-75
2023/12/04 06:13:08;;;;;;;18.77;10.77;;;;;;;;;;5025060;28;20186;-75
2023/12/04 06:15:34;;;;;;;17.70;10.33;;;;;;;;;;5023028;28;20236;-75
2023/12/04 06:17:59;;;;;;;19.23;9.53;;;;;;;;;;5013844;28;20221;-75
2023/12/04 06:20:24;;;;;;;18.93;9.43;;;;;;;;;;5023809;28;20194;-75
2023/12/04 06:22:50;;;;;;;19.67;10.00;;;;;;;;;;5028634;28;20181;-76
2023/12/04 06:25:16;;;;;;;18.40;10.33;;;;;;;;;;5019131;28;20625;-75
2023/12/04 06:27:42;;;;;;;18.90;9.83;;;;;;;;;;5042550;28;20316;-75
2023/12/04 06:30:08;;;;;;;19.13;9.77;;;;;;;;;;5013664;28;20257;-75
2023/12/04 06:32:33;;;;;;;19.53;9.80;;;;;;;;;;5030638;28;20194;-75
2023/12/04 06:34:59;;;;;;;17.47;9.33;;;;;;;;;;5023377;28;20194;-75
2023/12/04 06:37:25;;;;;;;16.30;8.90;;;;;;;;;;5025055;28;20260;-76
2023/12/04 06:39:53;;;;;;;19.37;9.77;;;;;;;;;;5028241;28;20200;-75
2023/12/04 06:42:19;;;;;;;19.73;10.93;;;;;;;;;;5008523;28;20407;-75
2023/12/04 06:44:45;;;;;;;18.73;9.40;;;;;;;;;;5024234;28;20196;-75
2023/12/04 06:47:12;;;;;;;17.47;8.70;;;;;;;;;;5025428;28;20186;-75
2023/12/04 06:49:38;;;;;;;17.37;8.17;;;;;;;;;;5023660;28;20201;-75
2023/12/04 06:52:04;;;;;;;15.77;8.63;;;;;;;;;;5047918;28;20272;-75
2023/12/04 06:54:29;;;;;;;16.60;8.87;;;;;;;;;;5046370;28;20276;-75
2023/12/04 06:56:55;;;;;;;17.57;9.43;;;;;;;;;;5029634;28;20241;-75
2023/12/04 06:59:20;;;;;;;17.23;8.80;;;;;;;;;;5030490;28;20268;-75
2023/12/04 07:01:46;;;;;;;16.90;8.17;;;;;;;;;;5033491;28;20276;-75
2023/12/04 07:04:12;;;;;;;18.03;8.60;;;;;;;;;;5026373;28;20232;-75
2023/12/04 07:06:38;;;;;;;15.97;8.60;;;;;;;;;;5022447;28;20272;-75
2023/12/04 07:09:04;;;;;;;17.47;8.70;;;;;;;;;;5022189;28;20275;-76
2023/12/04 07:11:30;;;;;;;15.87;8.53;;;;;;;;;;5024285;28;21967;-75
2023/12/04 07:13:55;;;;;;;15.90;8.30;;;;;;;;;;5023592;28;20182;-75
2023/12/04 07:16:21;;;;;;;16.93;7.90;;;;;;;;;;5022265;28;20926;-75
2023/12/04 07:18:46;;;;;;;13.67;8.07;;;;;;;;;;5024572;28;20225;-75
2023/12/04 07:21:12;;;;;;;16.47;8.03;;;;;;;;;;5025277;28;20239;-75
2023/12/04 07:23:37;;;;;;;15.40;7.83;;;;;;;;;;5027399;28;20193;-75
2023/12/04 07:26:03;;;;;;;13.43;7.23;;;;;;;;;;5022215;28;20201;-75
2023/12/04 07:28:29;;;;;;;13.50;7.50;;;;;;;;;;5030512;28;20310;-75
2023/12/04 07:30:56;;;;;;;14.87;8.20;;;;;;;;;;5030066;28;20210;-75
2023/12/04 07:33:21;;;;;;;13.30;7.60;;;;;;;;;;5028354;28;20190;-75
2023/12/04 07:35:47;;;;;;;14.57;7.40;;;;;;;;;;5028699;28;20197;-75
2023/12/04 07:38:12;;;;;;;15.83;8.13;;;;;;;;;;5029921;28;20225;-75
2023/12/04 07:40:38;;;;;;;12.70;7.27;;;;;;;;;;5022157;28;20212;-75
2023/12/04 07:43:03;;;;;;;12.53;7.40;;;;;;;;;;5023677;28;20280;-75
2023/12/04 07:45:29;;;;;;;12.37;6.40;;;;;;;;;;5028024;28;20209;-75
2023/12/04 07:47:54;;;;;;;11.80;6.13;;;;;;;;;;5028679;28;20624;-75
2023/12/04 07:50:20;;;;;;;11.07;6.30;;;;;;;;;;5044101;28;20198;-75
2023/12/04 07:52:45;;;;;;;11.93;6.60;;;;;;;;;;5023808;28;20288;-75
2023/12/04 07:55:10;;;;;;;11.67;6.03;;;;;;;;;;5019872;28;20260;-75
2023/12/04 07:57:36;;;;;;;11.27;6.73;;;;;;;;;;5002952;28;20182;-75
2023/12/04 08:00:03;;;;;;;11.03;5.90;;;;;;;;;;5031300;28;20186;-75
2023/12/04 08:02:29;;;;;;;10.10;5.90;;;;;;;;;;5031290;28;20272;-75
2023/12/04 08:04:54;;;;;;;12.00;6.30;;;;;;;;;;5029405;28;20191;-75
2023/12/04 08:07:19;;;;;;;12.37;6.60;;;;;;;;;;5020498;28;20217;-75
2023/12/04 08:09:45;;;;;;;8.90;5.80;;;;;;;;;;4996872;28;20361;-74
2023/12/04 08:12:11;;;;;;;12.67;6.63;;;;;;;;;;5031781;28;20363;-75
2023/12/04 08:14:36;;;;;;;8.90;5.80;;;;;;;;;;5031780;28;20592;-75
2023/12/04 08:17:02;;;;;;;12.30;6.23;;;;;;;;;;5015056;28;20623;-75
2023/12/04 08:19:27;;;;;;;13.23;6.10;;;;;;;;;;5020758;28;20632;-75
2023/12/04 08:21:52;;;;;;;11.33;6.50;;;;;;;;;;5031293;28;20199;-75
2023/12/04 08:24:18;;;;;;;11.97;6.10;;;;;;;;;;5019404;28;20253;-75
2023/12/04 08:26:46;;;;;;;8.43;5.17;;;;;;;;;;5021967;28;20255;-74
2023/12/04 08:29:12;;;;;;;10.90;5.93;;;;;;;;;;5040077;28;20209;-75
2023/12/04 08:31:37;;;;;;;9.43;5.83;;;;;;;;;;5029887;28;20198;-75
2023/12/04 08:34:03;;;;;;;11.10;5.50;;;;;;;;;;5027468;28;20206;-74
2023/12/04 08:36:28;;;;;;;10.77;6.23;;;;;;;;;;5032925;28;20224;-74
2023/12/04 08:38:54;;;;;;;10.97;5.73;;;;;;;;;;5032415;28;20190;-74
2023/12/04 08:41:20;;;;;;;11.60;6.40;;;;;;;;;;5016302;28;20190;-74
2023/12/04 08:43:45;;;;;;;8.67;5.50;;;;;;;;;;5032735;28;20190;-74
2023/12/04 08:46:14;;;;;;;9.47;5.50;;;;;;;;;;5022375;28;20259;-74
2023/12/04 08:48:43;;;;;;;9.40;5.70;;;;;;;;;;5009768;28;20222;-74
2023/12/04 08:51:15;;;;;;;10.47;6.00;;;;;;;;;;5028659;28;20218;-74
2023/12/04 08:53:40;;;;;;;10.70;5.97;;;;;;;;;;5040208;28;20198;-74
2023/12/04 08:56:06;;;;;;;9.77;5.97;;;;;;;;;;5022461;28;20657;-74
2023/12/04 08:58:32;;;;;;;7.23;4.90;;;;;;;;;;5014403;28;20202;-74
2023/12/04 09:00:58;;;;;;;8.50;5.00;;;;;;;;;;5011604;28;20195;-74
2023/12/04 09:03:23;;;;;;;10.80;5.60;;;;;;;;;;5040261;28;20206;-74
2023/12/04 09:05:51;;;;;;;9.27;6.07;;;;;;;;;;5014500;28;20626;-74
2023/12/04 09:08:18;;;;;;;9.33;5.87;;;;;;;;;;5020276;28;20225;-74
2023/12/04 09:10:44;;;;;;;8.57;5.53;;;;;;;;;;5014211;28;20662;-74
2023/12/04 09:13:09;;;;;;;9.50;5.80;;;;;;;;;;5014230;28;20190;-74
2023/12/04 09:15:35;;;;;;;9.73;5.83;;;;;;;;;;5013401;28;20231;-74
2023/12/04 09:18:00;;;;;;;9.30;5.00;;;;;;;;;;5019923;28;20217;-74
2023/12/04 09:20:26;;;;;;;9.33;4.90;;;;;;;;;;5024103;28;20190;-74
2023/12/04 09:22:51;;;;;;;8.83;5.27;;;;;;;;;;5021932;28;20268;-74
2023/12/04 09:25:16;;;;;;;8.93;5.40;;;;;;;;;;5014924;28;20595;-74
2023/12/04 09:27:42;;;;;;;8.83;5.13;;;;;;;;;;5014469;28;20730;-75
2023/12/04 09:30:08;;;;;;;7.90;4.93;;;;;;;;;;5024517;28;20225;-74
2023/12/04 09:32:33;;;;;;;8.93;5.20;;;;;;;;;;5029025;28;20204;-74
2023/12/04 09:34:59;;;;;;;7.90;5.10;;;;;;;;;;5026547;28;20610;-74
2023/12/04 09:37:24;;;;;;;9.07;5.70;;;;;;;;;;5024204;28;20187;-74
2023/12/04 09:39:50;;;;;;;10.17;5.60;;;;;;;;;;5021914;28;20191;-74
2023/12/04 09:42:18;;;;;;;9.77;5.50;;;;;;;;;;5022642;28;20217;-74
2023/12/04 09:44:43;;;;;;;8.47;5.00;;;;;;;;;;5025412;28;20654;-74
2023/12/04 09:47:10;;;;;;;6.80;4.57;;;;;;;;;;5024107;28;20269;-74
2023/12/04 09:49:35;;;;;;;9.60;5.27;;;;;;;;;;5020396;28;20290;-74
2023/12/04 09:52:04;;;;;;;7.83;5.00;;;;;;;;;;5028314;28;20281;-74
2023/12/04 09:54:30;;;;;;;7.53;5.30;;;;;;;;;;5013576;28;20202;-74
2023/12/04 09:56:56;;;;;;;8.57;5.33;;;;;;;;;;5011794;28;20272;-74
2023/12/04 09:59:25;;;;;;;7.83;5.23;;;;;;;;;;5011498;28;20197;-75
2023/12/04 10:01:51;;;;;;;8.60;5.00;;;;;;;;;;5024119;28;20198;-75
2023/12/04 10:04:16;;;;;;;8.87;4.93;;;;;;;;;;5027679;28;20190;-75
2023/12/04 10:06:45;;;;;;;8.47;5.20;;;;;;;;;;5028488;28;20194;-75
2023/12/04 10:09:11;;;;;;;8.23;4.60;;;;;;;;;;5009254;28;20556;-75
2023/12/04 10:11:41;;;;;;;7.77;4.77;;;;;;;;;;5028302;28;20192;-75
2023/12/04 10:14:17;;;;;;;8.13;4.73;;;;;;;;;;5011893;28;20305;-75
2023/12/04 10:16:43;;;;;;;8.00;5.10;;;;;;;;;;5028133;28;20185;-75
2023/12/04 10:19:23;;;;;;;7.03;4.80;;;;;;;;;;5021331;28;20202;-76
2023/12/04 10:21:50;;;;;;;8.17;5.23;;;;;;;;;;5010683;28;20199;-75
2023/12/04 10:24:36;;;;;;;9.93;5.30;;;;;;;;;;5027815;28;20193;-75
2023/12/04 10:27:04;;;;;;;7.50;4.80;;;;;;;;;;5027379;28;20208;-75
2023/12/04 10:29:42;;;;;;;7.97;4.67;;;;;;;;;;5007109;28;20207;-75
2023/12/04 10:32:07;;;;;;;6.33;4.47;;;;;;;;;;5021469;28;20200;-76
2023/12/04 10:34:33;;;;;;;6.87;4.60;;;;;;;;;;5026862;28;20229;-76
2023/12/04 10:37:00;;;;;;;7.50;4.70;;;;;;;;;;5029291;28;20592;-76
2023/12/04 10:39:28;;;;;;;10.30;4.83;;;;;;;;;;5027165;28;20190;-76
2023/12/04 10:42:02;;;;;;;8.60;5.03;;;;;;;;;;5033568;28;20285;-75
2023/12/04 10:44:28;;;;;;;9.37;5.13;;;;;;;;;;5015394;28;20205;-75
2023/12/04 10:46:57;;;;;;;7.37;4.43;;;;;;;;;;5011682;28;20784;-75
2023/12/04 10:49:26;;;;;;;10.10;4.77;;;;;;;;;;5008366;28;20271;-75
2023/12/04 10:51:53;;;;;;;10.77;4.90;;;;;;;;;;5028483;28;20275;-75
2023/12/04 10:54:19;;;;;;;10.07;5.13;;;;;;;;;;5026784;28;20190;-75
2023/12/04 10:56:48;;;;;;;7.57;4.93;;;;;;;;;;5026737;28;20186;-76
2023/12/04 10:59:21;;;;;;;6.50;4.53;;;;;;;;;;5029404;28;20798;-75
2023/12/04 11:01:48;;;;;;;6.43;4.43;;;;;;;;;;5022340;28;20697;-75
2023/12/04 11:04:18;;;;;;;7.60;4.17;;;;;;;;;;5021393;28;20193;-75
2023/12/04 11:06:49;;;;;;;7.77;4.77;;;;;;;;;;5009584;28;20193;-74
2023/12/04 11:09:16;;;;;;;6.40;4.07;;;;;;;;;;5038129;28;20811;-74
2023/12/04 11:11:46;;;;;;;5.97;4.07;;;;;;;;;;5036709;28;20564;-74
2023/12/04 11:14:18;;;;;;;6.80;4.03;;;;;;;;;;5033058;28;20193;-74
2023/12/04 11:16:50;;;;;;;6.33;4.17;;;;;;;;;;5036461;28;20186;-73
2023/12/04 11:19:46;;;;;;;6.70;4.60;;;;;;;;;;5035696;28;20205;-74
2023/12/04 11:22:14;;;;;;;6.20;4.13;;;;;;;;;;5035490;28;20226;-74
2023/12/04 11:24:40;;;;;;;5.60;3.90;;;;;;;;;;5020517;28;20190;-74
2023/12/04 11:27:06;;;;;;;7.03;4.43;;;;;;;;;;5037459;28;20240;-74
2023/12/04 11:29:32;;;;;;;6.47;4.57;;;;;;;;;;5038387;28;20288;-74
2023/12/04 11:31:58;;;;;;;7.27;4.90;;;;;;;;;;5051878;28;20256;-74
2023/12/04 11:34:24;;;;;;;7.57;4.60;;;;;;;;;;5034958;28;20614;-74
2023/12/04 11:36:51;;;;;;;7.23;4.60;;;;;;;;;;5037789;28;20255;-74
2023/12/04 11:39:18;;;;;;;7.03;4.60;;;;;;;;;;5029419;28;20237;-74
2023/12/04 11:41:45;;;;;;;9.43;4.83;;;;;;;;;;5034975;28;20187;-74
2023/12/04 11:44:14;;;;;;;6.73;4.33;;;;;;;;;;5021075;28;20202;-74
2023/12/04 11:46:55;;;;;;;7.70;4.67;;;;;;;;;;5034644;28;20194;-74
2023/12/04 11:49:28;;;;;;;7.33;4.33;;;;;;;;;;5035851;28;20217;-74
2023/12/04 11:51:54;;;;;;;6.70;4.77;;;;;;;;;;5033925;28;20182;-74
2023/12/04 11:54:25;;;;;;;7.27;4.87;;;;;;;;;;5028898;28;20247;-74
2023/12/04 11:57:09;;;;;;;7.90;4.97;;;;;;;;;;5033435;28;20209;-74
2023/12/04 11:59:37;;;;;;;7.57;4.87;;;;;;;;;;5049412;28;20687;-74
2023/12/04 12:02:07;;;;;;;9.80;5.10;;;;;;;;;;5029451;28;20192;-74
2023/12/04 12:04:33;;;;;;;9.30;5.53;;;;;;;;;;5028584;28;20182;-74
2023/12/04 12:07:02;;;;;;;10.50;5.30;;;;;;;;;;5015531;28;20297;-73
2023/12/04 12:09:28;;;;;;;8.47;5.13;;;;;;;;;;5028187;28;20281;-73
2023/12/04 12:11:54;;;;;;;10.40;5.27;;;;;;;;;;5017259;28;20191;-73
2023/12/04 12:14:21;;;;;;;7.90;4.77;;;;;;;;;;5020036;28;20296;-73
2023/12/04 12:16:47;;;;;;;7.30;4.80;;;;;;;;;;5018677;28;20274;-73
2023/12/04 12:19:12;;;;;;;7.17;4.30;;;;;;;;;;5030576;28;20278;-73
2023/12/04 12:21:38;;;;;;;6.87;4.47;;;;;;;;;;5031569;28;20182;-73
2023/12/04 12:24:06;;;;;;;6.27;4.17;;;;;;;;;;5043751;28;20186;-73
2023/12/04 12:26:32;;;;;;;5.83;4.07;;;;;;;;;;5021708;28;20271;-73
2023/12/04 12:28:57;;;;;;;6.33;4.00;;;;;;;;;;5026393;28;20234;-74
2023/12/04 12:31:22;;;;;;;7.40;4.93;;;;;;;;;;5034115;28;20197;-75
2023/12/04 12:33:48;;;;;;;6.63;4.63;;;;;;;;;;5028504;28;20717;-75
2023/12/04 12:36:16;;;;;;;7.40;4.20;;;;;;;;;;5026768;28;20186;-76
2023/12/04 12:38:41;;;;;;;7.57;4.50;;;;;;;;;;5024071;28;20610;-76
2023/12/04 12:41:08;;;;;;;7.63;4.90;;;;;;;;;;5022542;28;20687;-76
2023/12/04 12:43:34;;;;;;;6.23;4.07;;;;;;;;;;5029806;28;20244;-76
2023/12/04 12:45:59;;;;;;;6.37;4.70;;;;;;;;;;5029629;28;20641;-76
2023/12/04 12:48:26;;;;;;;7.07;4.53;;;;;;;;;;5032118;28;20211;-76
2023/12/04 12:50:52;;;;;;;8.17;4.93;;;;;;;;;;5038204;28;20208;-76
2023/12/04 12:53:18;;;;;;;6.43;4.73;;;;;;;;;;5027607;28;20233;-76
2023/12/04 12:55:44;;;;;;;7.13;5.10;;;;;;;;;;5025141;28;20654;-77
2023/12/04 12:58:10;;;;;;;9.30;5.47;;;;;;;;;;5027932;28;20209;-77
2023/12/04 13:00:36;;;;;;;7.47;5.33;;;;;;;;;;5002162;28;20446;-77
2023/12/04 13:03:01;;;;;;;8.37;5.50;;;;;;;;;;5010169;28;20195;-77
2023/12/04 13:05:27;;;;;;;6.83;4.87;;;;;;;;;;5009650;28;20221;-77
2023/12/04 13:07:52;;;;;;;10.47;5.40;;;;;;;;;;5031377;28;20210;-77
2023/12/04 13:10:18;;;;;;;8.07;5.57;;;;;;;;;;5027555;28;20186;-77
2023/12/04 13:12:43;;;;;;;8.00;4.97;;;;;;;;;;5030675;28;20186;-76
2023/12/04 13:15:15;;;;;;;11.21;5.19;;;;;;;;;;4554224;28;10001931;-77
2023/12/04 13:17:41;;;;;;;12.07;5.20;;;;;;;;;;5031928;28;20232;-77
2023/12/04 13:20:11;;;;;;;10.37;5.53;;;;;;;;;;5031211;28;20190;-77
2023/12/04 13:22:36;;;;;;;7.67;5.13;;;;;;;;;;5006091;28;20198;-77
2023/12/04 13:25:07;;;;;;;8.73;5.23;;;;;;;;;;5035467;28;20547;-77
2023/12/04 13:27:33;;;;;;;8.60;5.30;;;;;;;;;;5024969;28;20191;-78
2023/12/04 13:29:58;;;;;;;9.47;5.63;;;;;;;;;;5030338;28;20243;-78
2023/12/04 13:32:24;;;;;;;7.63;5.63;;;;;;;;;;5032610;28;20642;-78
2023/12/04 13:34:49;;;;;;;9.53;5.40;;;;;;;;;;5022313;28;20189;-78
2023/12/04 13:37:15;;;;;;;8.57;5.30;;;;;;;;;;5021976;28;20244;-77
2023/12/04 13:39:57;;;;;;;10.40;5.77;;;;;;;;;;5010368;28;20190;-77
2023/12/04 13:45:09;;;;;;;9.20;5.37;;;;;;;;;;5025613;28;20556;-78
2023/12/04 13:47:35;;;;;;;9.27;5.50;;;;;;;;;;5030675;28;20246;-78
2023/12/04 13:50:01;;;;;;;9.27;5.83;;;;;;;;;;5019969;28;20532;-77
2023/12/04 13:52:29;;;;;;;9.93;6.37;;;;;;;;;;5018617;28;20198;-78
2023/12/04 13:54:56;;;;;;;10.57;6.10;;;;;;;;;;5019991;28;20704;-78
2023/12/04 13:57:28;;;;;;;9.53;5.83;;;;;;;;;;5018193;28;20200;-78
2023/12/04 13:59:56;;;;;;;9.80;6.20;;;;;;;;;;5022569;28;20194;-78
2023/12/04 14:02:22;;;;;;;9.60;5.70;;;;;;;;;;5026933;28;20653;-77
2023/12/04 14:04:48;;;;;;;9.83;5.57;;;;;;;;;;5039482;28;20198;-78
2023/12/04 14:07:14;;;;;;;9.70;5.97;;;;;;;;;;5030137;28;20216;-78
2023/12/04 14:09:40;;;;;;;8.37;5.70;;;;;;;;;;5024200;28;20210;-77
2023/12/04 14:12:06;;;;;;;10.50;6.03;;;;;;;;;;5011982;28;20227;-77
2023/12/04 14:14:33;;;;;;;8.87;5.83;;;;;;;;;;5024592;28;20230;-77
2023/12/04 14:16:59;;;;;;;8.87;6.00;;;;;;;;;;5023167;28;20260;-78
2023/12/04 14:19:25;;;;;;;8.87;5.73;;;;;;;;;;5022395;28;20213;-78
2023/12/04 14:21:50;;;;;;;10.10;5.53;;;;;;;;;;5007485;28;20277;-79
2023/12/04 14:24:16;;;;;;;10.27;6.20;;;;;;;;;;5019576;28;20700;-78
2023/12/04 14:26:42;;;;;;;9.77;5.97;;;;;;;;;;5016095;28;20288;-78